Time;durP1;ratioP1;P1;durP2;ratioP2;P2;SDS_P1;SDS_P2;PMS_P1;PMS_P2;Temp;Humidity;BMP_temperature;BMP_pressure;BME280_temperature;BME280_humidity;BME280_pressure;Samples;Min_cycle;Max_cycle;Signal;HPM_P1;HPM_P2
2023/12/29 00:00:34;;;;;;;302.23;289.40;;;;;;;;;;4992050;28;20488;-40
2023/12/29 00:03:01;;;;;;;303.13;290.67;;;;;;;;;;4992125;28;20438;-39
2023/12/29 00:05:30;;;;;;;308.30;295.43;;;;;;;;;;4991295;28;20454;-40
2023/12/29 00:07:58;;;;;;;300.77;287.80;;;;;;;;;;4991819;28;20564;-40
2023/12/29 00:10:27;;;;;;;310.70;296.60;;;;;;;;;;4992128;28;20956;-41
2023/12/29 00:12:55;;;;;;;313.60;299.70;;;;;;;;;;4992069;28;20517;-40
2023/12/29 00:15:22;;;;;;;310.50;297.13;;;;;;;;;;4991545;28;20482;-41
2023/12/29 00:17:52;;;;;;;310.40;295.77;;;;;;;;;;4991729;28;20837;-39
2023/12/29 00:20:20;;;;;;;313.17;298.63;;;;;;;;;;4991719;28;20492;-39
2023/12/29 00:23:04;;;;;;;309.00;295.23;;;;;;;;;;4991870;28;20441;-39
2023/12/29 00:25:33;;;;;;;305.27;291.00;;;;;;;;;;4991333;28;20818;-39
2023/12/29 00:28:00;;;;;;;295.13;281.53;;;;;;;;;;4991667;28;20485;-40
2023/12/29 00:30:29;;;;;;;304.83;290.50;;;;;;;;;;4991521;28;20437;-40
2023/12/29 00:33:16;;;;;;;295.53;281.77;;;;;;;;;;4991995;28;21112;-40
2023/12/29 00:35:44;;;;;;;295.53;282.10;;;;;;;;;;4991037;28;20556;-40
2023/12/29 00:38:12;;;;;;;286.97;273.27;;;;;;;;;;5031542;23;20488;-38
2023/12/29 00:40:40;;;;;;;284.63;271.23;;;;;;;;;;5010900;28;20952;-38
2023/12/29 00:43:08;;;;;;;282.57;267.97;;;;;;;;;;5011042;28;20864;-38
2023/12/29 00:45:36;;;;;;;278.70;265.50;;;;;;;;;;5023253;28;20487;-38
2023/12/29 00:48:04;;;;;;;292.13;278.23;;;;;;;;;;5050277;28;20475;-38
2023/12/29 00:50:33;;;;;;;281.57;268.90;;;;;;;;;;5034065;28;20443;-38
2023/12/29 00:53:00;;;;;;;295.70;280.83;;;;;;;;;;5026396;28;20499;-38
2023/12/29 00:55:28;;;;;;;292.37;278.70;;;;;;;;;;5047880;28;20919;-38
2023/12/29 00:57:57;;;;;;;287.80;275.20;;;;;;;;;;5054264;28;20470;-38
2023/12/29 01:00:25;;;;;;;285.53;272.60;;;;;;;;;;5054473;28;20447;-38
2023/12/29 01:02:52;;;;;;;299.93;286.03;;;;;;;;;;5029680;28;20447;-38
2023/12/29 01:05:20;;;;;;;302.00;288.20;;;;;;;;;;5037788;28;20823;-38
2023/12/29 01:07:48;;;;;;;296.13;282.40;;;;;;;;;;5053879;28;20486;-38
2023/12/29 01:10:16;;;;;;;299.50;285.63;;;;;;;;;;5054017;28;20798;-38
2023/12/29 01:12:44;;;;;;;294.20;280.80;;;;;;;;;;5054086;28;20857;-40
2023/12/29 01:15:13;;;;;;;297.93;284.17;;;;;;;;;;5033457;28;20461;-38
2023/12/29 01:17:40;;;;;;;307.53;292.80;;;;;;;;;;5050223;28;20502;-38
2023/12/29 01:20:08;;;;;;;305.80;291.20;;;;;;;;;;5051746;28;20501;-38
2023/12/29 01:22:36;;;;;;;310.90;295.40;;;;;;;;;;5046796;28;20447;-38
2023/12/29 01:25:03;;;;;;;321.20;306.33;;;;;;;;;;5023679;28;20506;-38
2023/12/29 01:27:31;;;;;;;322.47;307.33;;;;;;;;;;5036808;28;20455;-39
2023/12/29 01:29:59;;;;;;;314.90;300.13;;;;;;;;;;5045354;28;20451;-38
2023/12/29 01:32:29;;;;;;;310.03;295.13;;;;;;;;;;5046468;28;20439;-38
2023/12/29 01:34:56;;;;;;;317.20;302.07;;;;;;;;;;5041669;28;20463;-42
2023/12/29 01:37:24;;;;;;;315.53;300.53;;;;;;;;;;5049101;28;20462;-39
2023/12/29 01:39:51;;;;;;;312.70;297.07;;;;;;;;;;5049702;28;20435;-41
2023/12/29 01:42:19;;;;;;;323.60;308.10;;;;;;;;;;5039809;28;20867;-38
2023/12/29 01:44:51;;;;;;;323.63;307.93;;;;;;;;;;5034692;28;20496;-38
2023/12/29 01:47:18;;;;;;;337.33;320.53;;;;;;;;;;5053192;28;20466;-39
2023/12/29 01:49:49;;;;;;;322.27;306.30;;;;;;;;;;5034618;28;20500;-38
2023/12/29 01:52:17;;;;;;;321.80;305.90;;;;;;;;;;5035698;28;20441;-38
2023/12/29 01:54:46;;;;;;;312.47;295.77;;;;;;;;;;5029917;28;20957;-40
2023/12/29 01:57:14;;;;;;;311.97;295.57;;;;;;;;;;5029717;28;20467;-38
2023/12/29 01:59:43;;;;;;;308.60;292.63;;;;;;;;;;5049844;28;20814;-38
2023/12/29 02:02:11;;;;;;;309.13;291.50;;;;;;;;;;5053119;28;20517;-38
2023/12/29 02:04:39;;;;;;;304.13;287.67;;;;;;;;;;5051604;28;20462;-38
2023/12/29 02:07:08;;;;;;;305.40;290.20;;;;;;;;;;5047918;28;20932;-39
2023/12/29 02:09:36;;;;;;;303.07;287.97;;;;;;;;;;5049261;28;20561;-39
2023/12/29 02:12:04;;;;;;;308.67;293.50;;;;;;;;;;5024876;28;20935;-38
2023/12/29 02:14:32;;;;;;;310.30;294.20;;;;;;;;;;5032566;28;20466;-38
2023/12/29 02:17:05;;;;;;;314.93;298.93;;;;;;;;;;5036435;28;20466;-39
2023/12/29 02:19:39;;;;;;;315.50;299.40;;;;;;;;;;5052663;28;20443;-38
2023/12/29 02:22:09;;;;;;;302.30;286.40;;;;;;;;;;5033971;28;20433;-38
2023/12/29 02:24:37;;;;;;;310.87;294.57;;;;;;;;;;5046816;28;21016;-38
2023/12/29 02:27:12;;;;;;;304.07;288.00;;;;;;;;;;5052550;28;20807;-40
2023/12/29 02:29:41;;;;;;;304.37;289.30;;;;;;;;;;5036040;28;20473;-38
2023/12/29 02:32:12;;;;;;;312.07;296.70;;;;;;;;;;5052812;28;20550;-38
2023/12/29 02:34:41;;;;;;;309.47;293.50;;;;;;;;;;5035758;28;20886;-39
2023/12/29 02:37:10;;;;;;;317.17;302.20;;;;;;;;;;5052452;28;20474;-40
2023/12/29 02:39:37;;;;;;;316.23;300.27;;;;;;;;;;5052016;28;20435;-38
2023/12/29 02:42:05;;;;;;;315.93;300.03;;;;;;;;;;5047988;28;21155;-37
2023/12/29 02:44:34;;;;;;;328.33;311.80;;;;;;;;;;5015667;28;20449;-39
2023/12/29 02:47:03;;;;;;;333.90;317.97;;;;;;;;;;5037168;28;20545;-38
2023/12/29 02:49:31;;;;;;;329.67;313.10;;;;;;;;;;5036188;28;20530;-38
2023/12/29 02:51:59;;;;;;;327.43;311.83;;;;;;;;;;5019709;28;20443;-38
2023/12/29 02:54:26;;;;;;;329.73;313.43;;;;;;;;;;5051680;28;20475;-38
2023/12/29 02:56:54;;;;;;;343.23;327.13;;;;;;;;;;5030000;28;20544;-38
2023/12/29 02:59:21;;;;;;;340.13;322.93;;;;;;;;;;5028901;28;20444;-38
2023/12/29 03:01:50;;;;;;;329.83;313.13;;;;;;;;;;5028864;28;20471;-38
2023/12/29 03:04:18;;;;;;;325.37;308.33;;;;;;;;;;5040470;28;20558;-40
2023/12/29 03:06:46;;;;;;;317.13;301.23;;;;;;;;;;5051793;28;20461;-38
2023/12/29 03:09:13;;;;;;;308.83;293.07;;;;;;;;;;5043550;28;20467;-39
2023/12/29 03:11:41;;;;;;;314.67;299.40;;;;;;;;;;5051569;28;21001;-38
2023/12/29 03:14:09;;;;;;;301.17;284.70;;;;;;;;;;5051664;28;20497;-38
2023/12/29 03:16:36;;;;;;;316.10;299.70;;;;;;;;;;5050943;28;20466;-38
2023/12/29 03:19:05;;;;;;;322.27;305.87;;;;;;;;;;5031192;28;20498;-38
2023/12/29 03:21:33;;;;;;;311.83;293.53;;;;;;;;;;5020116;28;20437;-39
2023/12/29 03:24:01;;;;;;;312.70;295.60;;;;;;;;;;5028335;28;20956;-38
2023/12/29 03:26:28;;;;;;;314.57;298.50;;;;;;;;;;5027856;28;20532;-38
2023/12/29 03:28:56;;;;;;;323.13;305.00;;;;;;;;;;5033473;28;20486;-38
2023/12/29 03:31:23;;;;;;;315.23;299.10;;;;;;;;;;5035101;28;20467;-38
2023/12/29 03:33:51;;;;;;;318.70;302.30;;;;;;;;;;5051101;28;20451;-38
2023/12/29 03:36:20;;;;;;;305.63;289.93;;;;;;;;;;5039029;28;20489;-40
2023/12/29 03:38:47;;;;;;;305.30;289.30;;;;;;;;;;5047379;28;20444;-38
2023/12/29 03:41:15;;;;;;;307.90;292.40;;;;;;;;;;5051774;28;20438;-38
2023/12/29 03:43:42;;;;;;;310.40;294.40;;;;;;;;;;5034472;28;20443;-38
2023/12/29 03:46:17;;;;;;;307.13;292.53;;;;;;;;;;5050743;28;20471;-38
2023/12/29 03:48:45;;;;;;;294.47;279.27;;;;;;;;;;5050660;28;20443;-38
2023/12/29 03:51:13;;;;;;;291.83;277.90;;;;;;;;;;5041523;28;20448;-38
2023/12/29 03:53:42;;;;;;;287.27;272.90;;;;;;;;;;5045351;28;21019;-38
2023/12/29 03:56:13;;;;;;;302.00;287.33;;;;;;;;;;5033927;28;20549;-38
2023/12/29 03:58:46;;;;;;;288.73;273.97;;;;;;;;;;5042373;28;20543;-38
2023/12/29 04:01:14;;;;;;;292.13;277.27;;;;;;;;;;5051281;28;20434;-40
2023/12/29 04:03:42;;;;;;;291.97;276.37;;;;;;;;;;5050802;28;20474;-38
2023/12/29 04:06:09;;;;;;;276.00;261.70;;;;;;;;;;5050584;28;20455;-38
2023/12/29 04:08:38;;;;;;;271.57;256.67;;;;;;;;;;5050870;28;20445;-38
2023/12/29 04:11:07;;;;;;;281.70;266.73;;;;;;;;;;5045332;28;20479;-38
2023/12/29 04:13:35;;;;;;;286.93;272.20;;;;;;;;;;5045002;28;20474;-38
2023/12/29 04:16:02;;;;;;;285.03;269.47;;;;;;;;;;5050421;28;20455;-38
2023/12/29 04:18:30;;;;;;;292.27;277.10;;;;;;;;;;5050667;28;20810;-38
2023/12/29 04:20:58;;;;;;;287.47;272.40;;;;;;;;;;5040230;28;20560;-38
2023/12/29 04:23:25;;;;;;;305.97;290.80;;;;;;;;;;5037742;28;20476;-38
2023/12/29 04:25:53;;;;;;;304.93;288.97;;;;;;;;;;5030857;28;20492;-41
2023/12/29 04:28:22;;;;;;;304.70;289.00;;;;;;;;;;5041568;28;20519;-38
2023/12/29 04:30:49;;;;;;;284.60;269.63;;;;;;;;;;5034427;28;20478;-39
2023/12/29 04:33:17;;;;;;;289.83;274.93;;;;;;;;;;5027743;28;20468;-38
2023/12/29 04:35:45;;;;;;;282.77;267.83;;;;;;;;;;5048943;28;20459;-38
2023/12/29 04:38:12;;;;;;;281.43;267.07;;;;;;;;;;5028943;28;20547;-38
2023/12/29 04:40:40;;;;;;;277.77;263.53;;;;;;;;;;5014623;28;20912;-38
2023/12/29 04:43:07;;;;;;;269.37;254.53;;;;;;;;;;5039231;28;20470;-38
2023/12/29 04:45:37;;;;;;;271.93;256.93;;;;;;;;;;5042806;28;20491;-38
2023/12/29 04:48:05;;;;;;;268.07;252.97;;;;;;;;;;5047491;28;20508;-38
2023/12/29 04:50:32;;;;;;;291.03;276.00;;;;;;;;;;5029096;28;20471;-40
2023/12/29 04:53:00;;;;;;;277.20;262.67;;;;;;;;;;5054171;28;20439;-38
2023/12/29 04:55:28;;;;;;;286.93;272.77;;;;;;;;;;5031151;28;20467;-38
2023/12/29 04:57:55;;;;;;;272.20;258.27;;;;;;;;;;5036407;28;20459;-38
2023/12/29 05:00:23;;;;;;;272.97;258.47;;;;;;;;;;5048747;28;20523;-38
2023/12/29 05:02:52;;;;;;;259.23;245.33;;;;;;;;;;5035460;28;20525;-38
2023/12/29 05:05:19;;;;;;;265.23;251.10;;;;;;;;;;5048590;28;20466;-38
2023/12/29 05:07:47;;;;;;;262.13;247.33;;;;;;;;;;5026451;28;20461;-41
2023/12/29 05:10:15;;;;;;;264.90;250.93;;;;;;;;;;5054267;28;20471;-38
2023/12/29 05:12:42;;;;;;;256.23;242.73;;;;;;;;;;5037415;28;20435;-39
2023/12/29 05:15:10;;;;;;;265.00;250.97;;;;;;;;;;5053563;28;20459;-40
2023/12/29 05:17:39;;;;;;;255.70;241.73;;;;;;;;;;5053822;28;20461;-38
2023/12/29 05:20:09;;;;;;;272.27;256.87;;;;;;;;;;5018893;28;20474;-40
2023/12/29 05:22:36;;;;;;;269.47;254.93;;;;;;;;;;5045803;28;20493;-38
2023/12/29 05:25:05;;;;;;;265.07;251.07;;;;;;;;;;5031022;28;20467;-38
2023/12/29 05:27:32;;;;;;;272.33;257.97;;;;;;;;;;5044227;28;20540;-38
2023/12/29 05:30:02;;;;;;;264.23;249.30;;;;;;;;;;5053637;28;20506;-39
2023/12/29 05:32:30;;;;;;;283.20;268.33;;;;;;;;;;5053814;28;20808;-38
2023/12/29 05:34:58;;;;;;;270.10;255.50;;;;;;;;;;5036826;28;20474;-38
2023/12/29 05:37:27;;;;;;;269.73;254.93;;;;;;;;;;5037043;28;20466;-40
2023/12/29 05:39:55;;;;;;;271.33;256.33;;;;;;;;;;5048602;28;20447;-38
2023/12/29 05:42:23;;;;;;;264.60;249.40;;;;;;;;;;5035789;28;20436;-38
2023/12/29 05:44:50;;;;;;;268.17;253.07;;;;;;;;;;5032055;28;20467;-38
2023/12/29 05:47:18;;;;;;;264.57;250.60;;;;;;;;;;5039507;28;20486;-38
2023/12/29 05:49:46;;;;;;;235.17;222.53;;;;;;;;;;5053207;28;20450;-41
2023/12/29 05:52:14;;;;;;;261.17;246.27;;;;;;;;;;5049449;28;20878;-38
2023/12/29 05:54:43;;;;;;;264.37;249.13;;;;;;;;;;5017133;28;20464;-38
2023/12/29 05:57:10;;;;;;;258.17;244.23;;;;;;;;;;5037123;28;20459;-38
2023/12/29 05:59:38;;;;;;;267.63;252.63;;;;;;;;;;5030005;28;20468;-38
2023/12/29 06:02:05;;;;;;;270.27;255.67;;;;;;;;;;5029665;28;20440;-38
2023/12/29 06:04:33;;;;;;;262.63;248.53;;;;;;;;;;5029632;28;20469;-38
2023/12/29 06:07:01;;;;;;;268.87;253.43;;;;;;;;;;5050419;28;20550;-38
2023/12/29 06:09:29;;;;;;;266.27;251.27;;;;;;;;;;5052911;28;20443;-41
2023/12/29 06:11:58;;;;;;;269.80;254.83;;;;;;;;;;5033153;28;20471;-38
2023/12/29 06:14:25;;;;;;;260.90;246.30;;;;;;;;;;5031984;28;20442;-38
2023/12/29 06:16:53;;;;;;;254.20;239.90;;;;;;;;;;5036459;28;20817;-39
2023/12/29 06:19:20;;;;;;;263.27;248.23;;;;;;;;;;5043008;28;20441;-38
2023/12/29 06:21:48;;;;;;;266.23;250.50;;;;;;;;;;5033404;28;20442;-41
2023/12/29 06:24:16;;;;;;;257.07;241.43;;;;;;;;;;5037135;28;20946;-39
2023/12/29 06:26:44;;;;;;;255.93;240.53;;;;;;;;;;5036765;28;20548;-38
2023/12/29 06:29:13;;;;;;;255.80;241.13;;;;;;;;;;5036166;28;20443;-38
2023/12/29 06:31:41;;;;;;;257.87;240.60;;;;;;;;;;5045253;28;20478;-39
2023/12/29 06:34:10;;;;;;;247.63;232.83;;;;;;;;;;5052344;28;20446;-38
2023/12/29 06:36:38;;;;;;;249.57;234.63;;;;;;;;;;5052275;28;20996;-38
2023/12/29 06:39:05;;;;;;;244.37;228.97;;;;;;;;;;5046886;28;20435;-39
2023/12/29 06:41:33;;;;;;;252.13;236.70;;;;;;;;;;5078662;22;20641;-41
2023/12/29 06:44:01;;;;;;;249.00;234.10;;;;;;;;;;5058679;28;20927;-40
2023/12/29 06:46:30;;;;;;;245.33;231.10;;;;;;;;;;5043740;28;20558;-40
2023/12/29 06:48:57;;;;;;;249.80;234.20;;;;;;;;;;5047735;28;20482;-39
2023/12/29 06:51:25;;;;;;;260.47;243.87;;;;;;;;;;5048917;28;20474;-41
2023/12/29 06:53:53;;;;;;;257.47;242.83;;;;;;;;;;5039680;28;20518;-39
2023/12/29 06:56:20;;;;;;;255.53;241.33;;;;;;;;;;5046042;28;20542;-42
2023/12/29 06:58:48;;;;;;;249.90;235.90;;;;;;;;;;5049326;28;20446;-41
2023/12/29 07:01:15;;;;;;;254.33;240.13;;;;;;;;;;5049771;28;20439;-40
2023/12/29 07:03:45;;;;;;;241.47;226.27;;;;;;;;;;5056594;28;20473;-39
2023/12/29 07:06:13;;;;;;;253.13;238.27;;;;;;;;;;5048994;28;20474;-39
2023/12/29 07:08:40;;;;;;;253.10;237.20;;;;;;;;;;5055986;28;20446;-40
2023/12/29 07:11:10;;;;;;;239.63;224.80;;;;;;;;;;5050185;28;20511;-39
2023/12/29 07:13:37;;;;;;;235.13;221.53;;;;;;;;;;5049111;28;20865;-40
2023/12/29 07:16:05;;;;;;;233.23;220.50;;;;;;;;;;5048615;28;20576;-40
2023/12/29 07:18:33;;;;;;;235.17;220.73;;;;;;;;;;5049761;28;20435;-41
2023/12/29 07:21:03;;;;;;;234.67;221.20;;;;;;;;;;5049017;28;20439;-40
2023/12/29 07:23:31;;;;;;;222.67;209.70;;;;;;;;;;5049358;28;20867;-40
2023/12/29 07:25:59;;;;;;;237.63;224.33;;;;;;;;;;5049595;28;20460;-40
2023/12/29 07:28:26;;;;;;;217.87;205.37;;;;;;;;;;5048326;28;20443;-42
2023/12/29 07:30:54;;;;;;;222.83;209.10;;;;;;;;;;5047742;28;20435;-40
2023/12/29 07:33:23;;;;;;;217.10;203.60;;;;;;;;;;5048440;28;20504;-42
2023/12/29 07:35:51;;;;;;;194.80;183.77;;;;;;;;;;5047718;28;20467;-39
2023/12/29 07:38:20;;;;;;;197.97;185.73;;;;;;;;;;5047969;28;20489;-40
2023/12/29 07:40:48;;;;;;;201.73;189.23;;;;;;;;;;5049134;28;20474;-40
2023/12/29 07:43:16;;;;;;;199.93;187.70;;;;;;;;;;5047225;28;20499;-41
2023/12/29 07:45:44;;;;;;;203.37;190.97;;;;;;;;;;5048415;28;20485;-39
2023/12/29 07:48:12;;;;;;;210.50;197.67;;;;;;;;;;5053634;28;20825;-43
2023/12/29 07:50:40;;;;;;;207.27;195.00;;;;;;;;;;5050811;28;20446;-41
2023/12/29 07:53:07;;;;;;;213.13;200.77;;;;;;;;;;5056030;28;20478;-42
2023/12/29 07:55:40;;;;;;;214.60;201.47;;;;;;;;;;5046555;28;20457;-42
2023/12/29 07:58:09;;;;;;;209.20;195.70;;;;;;;;;;5055656;28;20528;-41
2023/12/29 08:00:38;;;;;;;209.77;196.40;;;;;;;;;;5047255;28;20987;-40
2023/12/29 08:03:07;;;;;;;211.93;200.30;;;;;;;;;;5048812;28;20454;-41
2023/12/29 08:05:35;;;;;;;213.67;200.10;;;;;;;;;;5058907;28;20798;-40
2023/12/29 08:08:02;;;;;;;225.10;211.23;;;;;;;;;;5057244;28;20454;-41
2023/12/29 08:10:31;;;;;;;223.30;210.77;;;;;;;;;;5047465;28;20473;-39
2023/12/29 08:13:00;;;;;;;217.33;205.20;;;;;;;;;;5048053;28;21111;-40
2023/12/29 08:15:28;;;;;;;225.37;212.13;;;;;;;;;;5053933;28;20550;-41
2023/12/29 08:17:56;;;;;;;218.97;205.87;;;;;;;;;;5047518;28;20445;-39
2023/12/29 08:20:24;;;;;;;215.50;202.03;;;;;;;;;;5054301;28;20507;-39
2023/12/29 08:22:52;;;;;;;215.40;200.77;;;;;;;;;;5055821;28;20495;-40
2023/12/29 08:25:19;;;;;;;210.60;198.80;;;;;;;;;;5043056;28;20554;-39
2023/12/29 08:27:47;;;;;;;209.00;197.37;;;;;;;;;;5067275;28;20450;-40
2023/12/29 08:30:16;;;;;;;209.27;197.70;;;;;;;;;;5056387;28;20428;-42
2023/12/29 08:32:43;;;;;;;215.80;203.60;;;;;;;;;;5062818;28;20896;-39
2023/12/29 08:35:11;;;;;;;213.00;198.50;;;;;;;;;;5066769;28;21009;-40
2023/12/29 08:37:39;;;;;;;207.60;196.00;;;;;;;;;;5067458;28;20434;-40
2023/12/29 08:40:07;;;;;;;197.93;186.10;;;;;;;;;;5065824;28;20435;-40
2023/12/29 08:42:35;;;;;;;197.30;185.57;;;;;;;;;;5055082;28;20455;-41
2023/12/29 08:45:04;;;;;;;204.30;192.10;;;;;;;;;;5047261;28;20553;-40
2023/12/29 08:47:35;;;;;;;209.00;196.20;;;;;;;;;;5059133;28;20461;-43
2023/12/29 08:50:02;;;;;;;208.70;197.60;;;;;;;;;;5067224;28;20948;-41
2023/12/29 08:52:30;;;;;;;211.80;199.60;;;;;;;;;;5067479;28;20478;-44
2023/12/29 08:54:58;;;;;;;202.50;190.20;;;;;;;;;;5059507;28;20544;-40
2023/12/29 08:57:25;;;;;;;192.93;181.50;;;;;;;;;;5057760;28;20439;-41
2023/12/29 08:59:53;;;;;;;193.13;180.70;;;;;;;;;;5060050;28;20467;-42
2023/12/29 09:02:21;;;;;;;199.67;187.60;;;;;;;;;;5050972;28;20457;-40
2023/12/29 09:04:51;;;;;;;198.33;185.80;;;;;;;;;;5051038;28;20461;-40
2023/12/29 09:07:18;;;;;;;193.47;182.17;;;;;;;;;;5047105;28;20439;-42
2023/12/29 09:09:46;;;;;;;190.87;179.33;;;;;;;;;;5055013;28;20961;-40
2023/12/29 09:12:13;;;;;;;194.80;183.23;;;;;;;;;;5057026;28;20558;-41
2023/12/29 09:14:41;;;;;;;192.20;181.50;;;;;;;;;;5062276;28;21065;-42
2023/12/29 09:17:08;;;;;;;202.30;190.10;;;;;;;;;;5062446;28;20434;-41
2023/12/29 09:19:36;;;;;;;205.80;193.87;;;;;;;;;;5061921;28;20857;-40
2023/12/29 09:22:08;;;;;;;202.20;189.40;;;;;;;;;;5062152;28;20486;-40
2023/12/29 09:24:36;;;;;;;207.20;195.00;;;;;;;;;;5070825;28;20833;-42
2023/12/29 09:27:04;;;;;;;200.90;189.73;;;;;;;;;;5071510;28;20433;-40
2023/12/29 09:29:32;;;;;;;200.40;189.90;;;;;;;;;;5056887;28;20458;-41
2023/12/29 09:32:00;;;;;;;203.53;191.47;;;;;;;;;;5050862;28;20895;-42
2023/12/29 09:34:28;;;;;;;198.63;187.60;;;;;;;;;;5062152;28;20438;-41
2023/12/29 09:36:56;;;;;;;217.90;203.93;;;;;;;;;;5069468;28;20434;-42
2023/12/29 09:39:25;;;;;;;226.57;215.43;;;;;;;;;;5062134;28;20431;-43
2023/12/29 09:41:53;;;;;;;203.40;191.93;;;;;;;;;;5070162;28;20553;-42
2023/12/29 09:44:21;;;;;;;203.63;191.37;;;;;;;;;;5069563;28;20435;-40
2023/12/29 09:46:50;;;;;;;205.43;193.83;;;;;;;;;;5064162;28;20451;-41
2023/12/29 09:49:19;;;;;;;182.23;172.13;;;;;;;;;;5049339;28;20467;-41
2023/12/29 09:51:48;;;;;;;179.83;169.80;;;;;;;;;;5049993;28;20478;-43
2023/12/29 09:54:15;;;;;;;187.43;177.43;;;;;;;;;;5051919;28;20479;-42
2023/12/29 09:56:44;;;;;;;173.30;162.37;;;;;;;;;;5069671;28;20441;-41
2023/12/29 09:59:14;;;;;;;170.70;159.60;;;;;;;;;;5053373;28;20440;-42
2023/12/29 10:01:42;;;;;;;180.50;169.93;;;;;;;;;;5055035;28;20457;-41
2023/12/29 10:04:10;;;;;;;175.13;164.40;;;;;;;;;;5051356;28;20438;-39
2023/12/29 10:06:39;;;;;;;177.87;168.10;;;;;;;;;;5036268;28;20449;-41
2023/12/29 10:09:08;;;;;;;170.03;159.47;;;;;;;;;;5029173;28;20436;-41
2023/12/29 10:11:38;;;;;;;178.50;168.17;;;;;;;;;;5029748;28;20870;-40
2023/12/29 10:14:15;;;;;;;169.87;160.60;;;;;;;;;;5030017;28;20554;-41
2023/12/29 10:16:44;;;;;;;181.10;171.00;;;;;;;;;;5035702;28;20712;-40
2023/12/29 10:19:17;;;;;;;165.63;156.23;;;;;;;;;;5049150;28;20478;-40
2023/12/29 10:21:49;;;;;;;162.23;152.53;;;;;;;;;;5034230;28;20456;-40
2023/12/29 10:24:18;;;;;;;157.03;147.43;;;;;;;;;;5029842;28;20953;-41
2023/12/29 10:26:46;;;;;;;160.17;151.23;;;;;;;;;;5035666;28;20782;-40
2023/12/29 10:29:15;;;;;;;161.47;151.57;;;;;;;;;;5047259;28;20857;-41
2023/12/29 10:31:45;;;;;;;158.53;149.20;;;;;;;;;;5044003;28;20844;-40
2023/12/29 10:34:19;;;;;;;166.73;156.50;;;;;;;;;;5046275;28;20463;-40
2023/12/29 10:36:47;;;;;;;160.43;151.07;;;;;;;;;;5043718;28;20430;-42
2023/12/29 10:39:16;;;;;;;168.40;158.00;;;;;;;;;;5030352;28;20441;-40
2023/12/29 10:41:43;;;;;;;164.03;154.20;;;;;;;;;;5029136;28;20491;-39
2023/12/29 10:44:11;;;;;;;169.90;159.90;;;;;;;;;;5038513;28;20464;-43
2023/12/29 10:46:40;;;;;;;177.43;166.43;;;;;;;;;;5043803;28;20530;-41
2023/12/29 10:49:08;;;;;;;169.87;160.37;;;;;;;;;;5029158;28;20464;-39
2023/12/29 10:51:37;;;;;;;176.17;165.37;;;;;;;;;;5034830;28;20843;-41
2023/12/29 10:54:05;;;;;;;176.27;166.40;;;;;;;;;;5049152;28;20826;-40
2023/12/29 10:56:33;;;;;;;180.33;168.70;;;;;;;;;;5048716;28;21025;-42
2023/12/29 10:59:02;;;;;;;166.57;156.43;;;;;;;;;;5049156;28;20530;-44
2023/12/29 11:01:30;;;;;;;162.93;153.10;;;;;;;;;;5033350;28;20789;-39
2023/12/29 11:04:00;;;;;;;167.90;157.80;;;;;;;;;;5021221;28;20432;-43
2023/12/29 11:06:28;;;;;;;159.43;150.13;;;;;;;;;;5028730;28;20462;-40
2023/12/29 11:08:56;;;;;;;160.67;150.97;;;;;;;;;;5040164;28;20440;-42
2023/12/29 11:11:24;;;;;;;153.77;145.10;;;;;;;;;;5032230;28;20435;-40
2023/12/29 11:13:52;;;;;;;159.63;149.77;;;;;;;;;;5043069;28;20503;-41
2023/12/29 11:16:21;;;;;;;149.60;141.03;;;;;;;;;;5051816;28;21032;-40
2023/12/29 11:18:51;;;;;;;158.57;149.47;;;;;;;;;;5052615;28;20447;-41
2023/12/29 11:21:23;;;;;;;155.03;145.67;;;;;;;;;;5058180;28;20493;-39
2023/12/29 11:23:51;;;;;;;153.47;144.30;;;;;;;;;;5055233;28;20465;-40
2023/12/29 11:26:19;;;;;;;160.90;151.77;;;;;;;;;;5061576;28;20537;-41
2023/12/29 11:28:47;;;;;;;161.20;151.47;;;;;;;;;;5051374;28;20471;-40
2023/12/29 11:31:15;;;;;;;161.13;150.60;;;;;;;;;;5049379;28;20458;-41
2023/12/29 11:33:46;;;;;;;162.00;152.17;;;;;;;;;;5061856;28;20898;-42
2023/12/29 11:36:16;;;;;;;158.07;149.20;;;;;;;;;;5034884;28;20936;-41
2023/12/29 11:39:04;;;;;;;164.50;155.20;;;;;;;;;;5055026;28;20466;-39
2023/12/29 11:41:34;;;;;;;161.00;152.70;;;;;;;;;;5039538;28;20467;-40
2023/12/29 11:45:59;;;;;;;162.60;151.90;;;;;;;9.47;100.00;99841.56;5142468;27;20520;-40
2023/12/29 11:48:56;;;;;;;164.13;153.60;;;;;;;9.55;100.00;99836.81;5050885;28;20891;-40
2023/12/29 11:51:35;;;;;;;156.97;147.50;;;;;;;9.65;100.00;99841.66;5047600;28;21001;-40
2023/12/29 11:54:04;;;;;;;158.13;148.33;;;;;;;9.70;100.00;99836.53;5064726;28;20430;-40
2023/12/29 11:56:35;;;;;;;160.93;151.63;;;;;;;9.77;100.00;99829.31;5057831;28;20526;-41
2023/12/29 11:59:20;;;;;;;154.23;144.37;;;;;;;9.96;100.00;99833.72;5064598;28;20459;-44
2023/12/29 12:01:51;;;;;;;148.47;139.50;;;;;;;10.09;100.00;99824.81;5059543;28;20465;-42
2023/12/29 12:04:39;;;;;;;139.87;131.50;;;;;;;10.05;100.00;99831.59;5065838;28;20477;-40
2023/12/29 12:07:09;;;;;;;137.47;128.67;;;;;;;10.13;100.00;99826.84;5062579;28;20542;-42
2023/12/29 12:09:37;;;;;;;134.30;124.60;;;;;;;10.17;100.00;99817.41;5065193;28;20438;-43
2023/12/29 12:12:06;;;;;;;134.43;126.90;;;;;;;10.19;100.00;99817.19;5065435;28;20903;-42
2023/12/29 12:14:51;;;;;;;129.47;121.53;;;;;;;10.16;100.00;99818.44;5064650;28;20441;-42
2023/12/29 12:17:31;;;;;;;120.80;112.23;;;;;;;10.12;100.00;99822.53;5063978;28;20973;-40
2023/12/29 12:20:04;;;;;;;122.37;114.40;;;;;;;10.15;100.00;99819.47;5064132;28;20441;-43
2023/12/29 12:22:32;;;;;;;121.47;114.27;;;;;;;10.16;100.00;99821.09;5055506;28;20477;-44
2023/12/29 12:25:06;;;;;;;123.00;115.70;;;;;;;9.98;100.00;99820.97;5063948;28;20565;-41
2023/12/29 12:27:34;;;;;;;116.17;108.43;;;;;;;10.03;100.00;99813.97;5063332;28;20460;-45
2023/12/29 12:30:03;;;;;;;116.10;108.70;;;;;;;10.01;100.00;99821.38;5064430;28;20431;-44
2023/12/29 12:32:33;;;;;;;121.83;115.10;;;;;;;9.85;100.00;99811.25;5063269;28;20486;-40
2023/12/29 12:35:01;;;;;;;116.40;109.60;;;;;;;9.79;100.00;99806.78;5067219;28;20760;-42
2023/12/29 12:37:30;;;;;;;122.60;115.33;;;;;;;9.96;100.00;99810.56;5062895;28;20545;-42
2023/12/29 12:39:58;;;;;;;117.47;111.17;;;;;;;9.99;100.00;99809.31;5064815;28;20478;-40
2023/12/29 12:42:26;;;;;;;119.30;111.70;;;;;;;9.98;100.00;99815.66;5062319;28;20461;-41
2023/12/29 12:44:57;;;;;;;127.30;119.73;;;;;;;9.91;100.00;99828.22;5088768;22;20470;-37
2023/12/29 12:47:31;;;;;;;137.40;128.87;;;;;;;9.76;100.00;99817.03;5023465;28;20515;-36
2023/12/29 12:50:01;;;;;;;135.93;127.53;;;;;;;9.55;100.00;99825.34;5024624;28;20539;-36
2023/12/29 12:52:33;;;;;;;126.23;119.33;;;;;;;9.38;100.00;99814.34;5025052;28;20436;-36
2023/12/29 12:55:02;;;;;;;136.93;128.87;;;;;;;9.28;100.00;99822.78;5029233;28;20733;-37
2023/12/29 12:57:30;;;;;;;127.33;120.00;;;;;;;9.12;100.00;99811.78;5005938;28;20452;-36
2023/12/29 13:00:01;;;;;;;129.90;121.90;;;;;;;9.09;100.00;99815.69;5015173;28;20479;-37
2023/12/29 13:02:32;;;;;;;130.70;123.00;;;;;;;9.08;100.00;99814.03;5007577;28;20444;-38
2023/12/29 13:05:05;;;;;;;133.73;125.70;;;;;;;9.07;100.00;99808.94;5011956;28;20535;-40
2023/12/29 13:07:33;;;;;;;137.13;128.53;;;;;;;9.04;100.00;99817.34;5015010;28;20526;-37
2023/12/29 13:10:03;;;;;;;139.83;130.83;;;;;;;9.00;100.00;99813.44;5009501;28;20536;-37
2023/12/29 13:12:31;;;;;;;139.03;130.20;;;;;;;8.96;100.00;99820.22;5014276;28;20838;-36
2023/12/29 13:15:06;;;;;;;140.03;131.40;;;;;;;8.99;100.00;99815.28;5015580;28;20433;-36
2023/12/29 13:17:34;;;;;;;142.27;133.70;;;;;;;8.95;100.00;99813.25;5007267;28;20523;-36
2023/12/29 13:20:04;;;;;;;152.60;143.93;;;;;;;8.94;100.00;99815.09;5009086;28;20541;-36
2023/12/29 13:22:32;;;;;;;144.67;135.83;;;;;;;8.88;100.00;99819.41;5014707;28;20488;-36
2023/12/29 13:25:00;;;;;;;144.80;136.07;;;;;;;8.83;100.00;99826.38;5001627;28;20470;-36
2023/12/29 13:27:28;;;;;;;140.87;132.93;;;;;;;8.88;100.00;99815.94;5010594;28;20465;-36
2023/12/29 13:29:56;;;;;;;134.73;126.83;;;;;;;8.84;100.00;99826.16;4995983;28;20529;-36
2023/12/29 13:32:28;;;;;;;133.70;126.63;;;;;;;8.82;100.00;99819.41;4996377;28;20446;-37
2023/12/29 13:35:07;;;;;;;132.07;123.50;;;;;;;8.80;100.00;99830.28;5014028;28;20437;-37